Yale, Canada
Current Conditions -  °F | °C
As of 10:28 AM on Thursday 27 Nov 2014 (Local Time) from CYHE Reporting Station
Moderate Rain Moderate Rain  
Wind Chill: 50°   Ceiling: 2500
Heat Index: 50°   Visibility: 4mi
Dew Point: 50°   Wind: 3mph
Humidity: 100%   Direction: NA
Pressure: 29.75"   Gusts: NA
Location:  49.56°N, 121.43°W
Report Text: CYHE 271828Z AUTO VRB03KT 4SM RA BR SCT015 BKN025 OVC033 10/10 A2975 RMK SLP074
Loading
Personal Weather Stations






























Interactive Weather Map New forecast layout! Learn more

10-Day Weather Forecast

Advertisements
Track Severe Weather on mobile